Time;durP1;ratioP1;P1;durP2;ratioP2;P2;SDS_P1;SDS_P2;PMS_P1;PMS_P2;Temp;Humidity;BMP_temperature;BMP_pressure;BME280_temperature;BME280_humidity;BME280_pressure;Samples;Min_cycle;Max_cycle;Signal;HPM_P1;HPM_P2
2021/09/11 00:01:13;;;;;;;6.50;5.90;;;;;;;;;;5034402;28;20018;-59
2021/09/11 00:03:39;;;;;;;9.20;6.28;;;;;;;;;;5016656;28;20021;-59
2021/09/11 00:06:05;;;;;;;7.55;6.03;;;;;;;;;;5034358;28;20084;-59
2021/09/11 00:08:31;;;;;;;10.68;5.53;;;;;;;;;;5034873;28;20021;-59
2021/09/11 00:10:57;;;;;;;6.90;5.65;;;;;;;;;;5016663;28;20073;-58
2021/09/11 00:13:23;;;;;;;6.10;5.50;;;;;;;;;;5034513;28;20380;-58
2021/09/11 00:15:50;;;;;;;6.43;5.28;;;;;;;;;;5035053;28;20117;-58
2021/09/11 00:18:19;;;;;;;5.30;4.72;;;;;;;;;;5034526;28;20523;-58
2021/09/11 00:20:45;;;;;;;6.75;5.05;;;;;;;;;;5034067;28;20427;-58
2021/09/11 00:23:11;;;;;;;6.47;5.68;;;;;;;;;;5034778;28;20021;-58
2021/09/11 00:25:37;;;;;;;6.13;5.53;;;;;;;;;;5034095;28;20140;-58
2021/09/11 00:28:04;;;;;;;6.13;5.53;;;;;;;;;;5034385;28;20072;-58
2021/09/11 00:30:30;;;;;;;7.00;6.30;;;;;;;;;;5033678;28;20464;-58
2021/09/11 00:32:56;;;;;;;7.00;5.72;;;;;;;;;;5016224;28;20033;-58
2021/09/11 00:35:22;;;;;;;8.27;5.90;;;;;;;;;;5033963;28;20424;-58
2021/09/11 00:37:48;;;;;;;5.55;5.00;;;;;;;;;;5016230;28;20029;-58
2021/09/11 00:40:16;;;;;;;6.78;5.68;;;;;;;;;;5033571;28;20033;-58
2021/09/11 00:42:47;;;;;;;5.70;5.13;;;;;;;;;;5034188;28;20344;-58
2021/09/11 00:45:14;;;;;;;6.88;5.95;;;;;;;;;;5034146;28;20025;-58
2021/09/11 00:47:40;;;;;;;5.88;5.28;;;;;;;;;;5033814;28;20414;-58
2021/09/11 00:50:06;;;;;;;6.85;5.82;;;;;;;;;;5033760;28;20056;-58
2021/09/11 00:52:32;;;;;;;7.93;5.55;;;;;;;;;;5015916;28;20025;-58
2021/09/11 00:54:58;;;;;;;6.70;6.05;;;;;;;;;;5033397;28;20021;-58
2021/09/11 00:57:24;;;;;;;6.28;5.18;;;;;;;;;;5033371;28;20128;-58
2021/09/11 00:59:50;;;;;;;8.75;5.93;;;;;;;;;;5034349;28;20037;-58
2021/09/11 01:02:16;;;;;;;6.13;5.53;;;;;;;;;;5033696;28;20036;-58
2021/09/11 01:04:42;;;;;;;5.97;5.25;;;;;;;;;;5034355;28;20025;-58
2021/09/11 01:07:08;;;;;;;6.95;6.20;;;;;;;;;;5033417;28;20025;-58
2021/09/11 01:09:34;;;;;;;7.75;6.18;;;;;;;;;;5033846;28;20028;-58
2021/09/11 01:12:00;;;;;;;6.25;5.07;;;;;;;;;;5033709;28;20462;-58
2021/09/11 01:14:29;;;;;;;5.70;5.10;;;;;;;;;;5016594;28;20053;-58
2021/09/11 01:16:55;;;;;;;7.22;5.75;;;;;;;;;;5033778;28;20055;-58
2021/09/11 01:19:24;;;;;;;5.20;4.70;;;;;;;;;;5015738;28;20120;-58
2021/09/11 01:21:50;;;;;;;6.15;5.55;;;;;;;;;;5033773;28;20026;-58
2021/09/11 01:24:16;;;;;;;5.97;5.38;;;;;;;;;;5034192;28;20149;-58
2021/09/11 01:26:42;;;;;;;7.18;5.82;;;;;;;;;;5033923;28;20025;-58
2021/09/11 01:29:09;;;;;;;6.10;5.35;;;;;;;;;;5033406;28;20053;-58
2021/09/11 01:31:36;;;;;;;5.22;4.68;;;;;;;;;;5033240;28;20048;-58
2021/09/11 01:34:02;;;;;;;6.82;4.68;;;;;;;;;;5033267;28;20387;-58
2021/09/11 01:36:31;;;;;;;9.75;5.28;;;;;;;;;;5033361;28;20021;-58
2021/09/11 01:38:57;;;;;;;5.53;4.88;;;;;;;;;;5033229;28;20034;-58
2021/09/11 01:41:25;;;;;;;6.07;5.30;;;;;;;;;;5033456;28;20028;-58
2021/09/11 01:43:51;;;;;;;7.40;5.35;;;;;;;;;;5033335;28;20073;-58
2021/09/11 01:46:17;;;;;;;8.68;5.55;;;;;;;;;;5033111;28;20026;-58
2021/09/11 01:48:44;;;;;;;6.57;5.13;;;;;;;;;;5015791;28;20061;-58
2021/09/11 01:51:10;;;;;;;6.53;5.00;;;;;;;;;;5033706;28;20061;-58
2021/09/11 01:53:36;;;;;;;5.75;5.22;;;;;;;;;;5033431;28;20064;-58
2021/09/11 01:56:02;;;;;;;6.45;5.72;;;;;;;;;;5033374;28;20116;-58
2021/09/11 01:58:28;;;;;;;6.32;5.43;;;;;;;;;;5033175;28;20030;-58
2021/09/11 02:00:54;;;;;;;5.93;5.22;;;;;;;;;;5015851;28;20412;-58
2021/09/11 02:03:20;;;;;;;7.20;5.72;;;;;;;;;;5034327;28;20022;-58
2021/09/11 02:05:48;;;;;;;6.82;5.45;;;;;;;;;;5036712;28;20081;-58
2021/09/11 02:08:15;;;;;;;7.70;5.57;;;;;;;;;;5036710;28;20029;-59
2021/09/11 02:10:41;;;;;;;7.47;5.90;;;;;;;;;;5036563;28;20028;-58
2021/09/11 02:13:07;;;;;;;9.13;5.40;;;;;;;;;;5037060;28;20045;-59
2021/09/11 02:15:33;;;;;;;8.80;5.93;;;;;;;;;;5036524;28;20420;-58
2021/09/11 02:17:59;;;;;;;8.95;6.38;;;;;;;;;;5036245;28;20463;-59
2021/09/11 02:20:25;;;;;;;6.50;5.90;;;;;;;;;;5036056;28;20036;-59
2021/09/11 02:22:51;;;;;;;6.40;5.80;;;;;;;;;;5036623;28;20026;-59
2021/09/11 02:25:17;;;;;;;7.88;6.10;;;;;;;;;;5036370;28;20452;-59
2021/09/11 02:27:43;;;;;;;6.65;5.85;;;;;;;;;;5036251;28;20018;-59
2021/09/11 02:30:09;;;;;;;5.95;4.75;;;;;;;;;;5036799;28;20067;-59
2021/09/11 02:32:35;;;;;;;6.85;6.18;;;;;;;;;;5035778;28;20025;-59
2021/09/11 02:35:01;;;;;;;7.60;5.65;;;;;;;;;;5036121;28;20022;-58
2021/09/11 02:37:27;;;;;;;7.07;4.97;;;;;;;;;;5036083;28;20133;-59
2021/09/11 02:39:53;;;;;;;6.78;6.07;;;;;;;;;;5035950;28;20120;-59
2021/09/11 02:42:19;;;;;;;6.60;5.80;;;;;;;;;;5019162;28;20127;-59
2021/09/11 02:44:45;;;;;;;6.22;5.63;;;;;;;;;;5035940;28;20026;-59
2021/09/11 02:47:11;;;;;;;6.07;5.18;;;;;;;;;;5035986;28;20047;-59
2021/09/11 02:49:37;;;;;;;6.88;5.68;;;;;;;;;;5036372;28;20021;-59
2021/09/11 02:52:03;;;;;;;5.32;4.75;;;;;;;;;;5018766;28;20026;-59
2021/09/11 02:54:29;;;;;;;6.88;6.15;;;;;;;;;;5035835;28;20053;-59
2021/09/11 02:56:55;;;;;;;6.80;5.20;;;;;;;;;;5035677;28;20096;-58
2021/09/11 02:59:21;;;;;;;8.02;5.43;;;;;;;;;;5035534;28;20068;-59
2021/09/11 03:01:47;;;;;;;5.30;4.80;;;;;;;;;;5035918;28;20021;-59
2021/09/11 03:04:13;;;;;;;6.32;5.72;;;;;;;;;;5001729;28;20440;-59
2021/09/11 03:06:39;;;;;;;6.50;5.05;;;;;;;;;;5017873;28;20025;-59
2021/09/11 03:09:05;;;;;;;7.20;5.95;;;;;;;;;;5035457;28;20108;-58
2021/09/11 03:11:31;;;;;;;5.43;4.43;;;;;;;;;;5035481;28;20026;-58
2021/09/11 03:13:57;;;;;;;6.38;5.78;;;;;;;;;;5034700;28;20052;-58
2021/09/11 03:16:23;;;;;;;6.53;5.05;;;;;;;;;;5035202;28;20057;-58
2021/09/11 03:18:49;;;;;;;8.02;5.63;;;;;;;;;;5017375;28;20022;-58
2021/09/11 03:21:16;;;;;;;6.03;4.70;;;;;;;;;;5034978;28;20021;-58
2021/09/11 03:23:42;;;;;;;5.13;4.63;;;;;;;;;;5035539;28;20368;-58
2021/09/11 03:26:08;;;;;;;5.50;5.00;;;;;;;;;;5017752;28;20057;-58
2021/09/11 03:28:34;;;;;;;6.45;5.05;;;;;;;;;;5035383;28;20506;-58
2021/09/11 03:31:00;;;;;;;6.38;4.95;;;;;;;;;;5035132;28;20025;-58
2021/09/11 03:33:26;;;;;;;5.15;4.32;;;;;;;;;;5017854;28;20427;-58
2021/09/11 03:35:54;;;;;;;5.43;4.80;;;;;;;;;;5034902;28;20021;-58
2021/09/11 03:38:20;;;;;;;6.75;5.53;;;;;;;;;;5034765;28;20018;-58
2021/09/11 03:40:46;;;;;;;6.13;4.72;;;;;;;;;;5035153;28;20029;-58
2021/09/11 03:43:12;;;;;;;5.60;4.72;;;;;;;;;;5017129;28;20444;-58
2021/09/11 03:45:38;;;;;;;5.60;5.05;;;;;;;;;;5017171;28;20021;-58
2021/09/11 03:48:05;;;;;;;5.53;4.47;;;;;;;;;;5017867;28;20025;-58
2021/09/11 03:50:30;;;;;;;5.40;4.00;;;;;;;;;;5034672;28;20021;-58
2021/09/11 03:52:56;;;;;;;4.53;4.10;;;;;;;;;;5034824;28;20022;-58
2021/09/11 03:55:22;;;;;;;6.13;5.32;;;;;;;;;;5034683;28;20022;-58
2021/09/11 03:57:48;;;;;;;5.45;4.90;;;;;;;;;;5016799;28;20468;-58
2021/09/11 04:00:14;;;;;;;6.00;5.47;;;;;;;;;;5017341;28;20033;-58
2021/09/11 04:02:40;;;;;;;5.78;4.55;;;;;;;;;;5035119;28;20082;-58
2021/09/11 04:05:06;;;;;;;4.32;3.80;;;;;;;;;;5034506;28;20423;-58
2021/09/11 04:07:32;;;;;;;5.25;4.75;;;;;;;;;;5017029;28;20455;-58
2021/09/11 04:09:58;;;;;;;5.50;4.40;;;;;;;;;;5017283;28;20109;-58
2021/09/11 04:12:25;;;;;;;4.40;3.90;;;;;;;;;;5017205;28;20199;-58
2021/09/11 04:14:51;;;;;;;6.80;4.10;;;;;;;;;;5034763;28;20029;-58
2021/09/11 04:17:17;;;;;;;5.50;4.72;;;;;;;;;;5034916;28;20031;-58
2021/09/11 04:19:43;;;;;;;6.65;4.70;;;;;;;;;;5034748;28;20030;-58
2021/09/11 04:22:09;;;;;;;5.75;4.03;;;;;;;;;;5035043;28;20029;-58
2021/09/11 04:24:35;;;;;;;4.65;4.15;;;;;;;;;;5016551;28;20108;-58
2021/09/11 04:27:00;;;;;;;7.78;5.38;;;;;;;;;;5033799;28;20020;-58
2021/09/11 04:29:27;;;;;;;4.43;3.95;;;;;;;;;;5034075;28;20021;-58
2021/09/11 04:31:53;;;;;;;4.40;4.00;;;;;;;;;;5016610;28;20029;-58
2021/09/11 04:34:19;;;;;;;8.63;4.22;;;;;;;;;;5016391;28;20384;-58
2021/09/11 04:36:45;;;;;;;4.85;4.35;;;;;;;;;;5034599;28;20263;-58
2021/09/11 04:39:11;;;;;;;4.07;3.67;;;;;;;;;;5034715;28;20122;-58
2021/09/11 04:41:37;;;;;;;4.70;3.85;;;;;;;;;;5033948;28;20029;-58
2021/09/11 04:44:03;;;;;;;6.38;4.50;;;;;;;;;;5034463;28;20018;-58
2021/09/11 04:46:29;;;;;;;7.68;4.88;;;;;;;;;;5016944;28;20396;-58
2021/09/11 04:48:58;;;;;;;5.38;3.95;;;;;;;;;;5016987;28;20479;-58
2021/09/11 04:51:24;;;;;;;4.78;4.25;;;;;;;;;;5034145;28;20033;-58
2021/09/11 04:53:52;;;;;;;4.47;3.97;;;;;;;;;;5034601;28;20028;-58
2021/09/11 04:56:19;;;;;;;5.32;4.05;;;;;;;;;;5034079;28;20013;-58
2021/09/11 04:58:45;;;;;;;4.47;4.07;;;;;;;;;;5034285;28;20053;-59
2021/09/11 05:01:11;;;;;;;4.05;3.42;;;;;;;;;;5033596;28;20033;-58
2021/09/11 05:03:37;;;;;;;5.25;4.15;;;;;;;;;;5033756;28;20017;-58
2021/09/11 05:06:03;;;;;;;5.63;4.05;;;;;;;;;;5033704;28;20022;-58
2021/09/11 05:08:29;;;;;;;4.68;3.72;;;;;;;;;;5015941;28;20136;-58
2021/09/11 05:10:55;;;;;;;4.13;3.70;;;;;;;;;;5033326;28;20037;-58
2021/09/11 05:13:21;;;;;;;5.10;3.40;;;;;;;;;;5033235;28;20045;-58
2021/09/11 05:15:47;;;;;;;7.10;4.45;;;;;;;;;;5032299;28;20120;-58
2021/09/11 05:18:13;;;;;;;6.68;3.90;;;;;;;;;;5033222;28;20120;-58
2021/09/11 05:20:39;;;;;;;5.47;3.30;;;;;;;;;;5033369;28;20040;-58
2021/09/11 05:23:05;;;;;;;5.25;3.92;;;;;;;;;;5033771;28;20025;-58
2021/09/11 05:25:31;;;;;;;4.70;3.45;;;;;;;;;;5033140;28;20384;-58
2021/09/11 05:27:57;;;;;;;4.63;3.65;;;;;;;;;;5015635;28;20018;-58
2021/09/11 05:30:26;;;;;;;6.78;4.28;;;;;;;;;;5033198;28;20026;-58
2021/09/11 05:32:52;;;;;;;4.97;4.18;;;;;;;;;;5015629;28;20021;-58
2021/09/11 05:35:18;;;;;;;5.18;3.85;;;;;;;;;;5033433;28;20021;-58
2021/09/11 05:37:45;;;;;;;4.28;3.70;;;;;;;;;;5016100;28;20026;-58
2021/09/11 05:40:13;;;;;;;4.85;4.32;;;;;;;;;;5037127;28;20119;-58
2021/09/11 05:42:39;;;;;;;5.22;4.35;;;;;;;;;;5037306;28;20013;-58
2021/09/11 05:45:06;;;;;;;4.90;4.00;;;;;;;;;;5037454;28;20026;-58
2021/09/11 05:47:32;;;;;;;6.45;4.60;;;;;;;;;;5019401;28;20021;-59
2021/09/11 05:49:58;;;;;;;5.85;4.60;;;;;;;;;;5037001;28;20037;-58
2021/09/11 05:52:24;;;;;;;8.40;5.10;;;;;;;;;;5037611;28;20032;-58
2021/09/11 05:54:50;;;;;;;5.07;4.18;;;;;;;;;;5036940;28;20076;-59
2021/09/11 05:57:17;;;;;;;5.07;4.45;;;;;;;;;;5036672;28;20080;-59
2021/09/11 05:59:43;;;;;;;5.00;4.57;;;;;;;;;;5019381;28;20040;-59
2021/09/11 06:02:11;;;;;;;5.47;4.70;;;;;;;;;;5037235;28;20053;-58
2021/09/11 06:04:37;;;;;;;5.95;5.10;;;;;;;;;;5019887;28;20411;-58
2021/09/11 06:07:03;;;;;;;5.38;4.55;;;;;;;;;;5019339;28;20519;-58
2021/09/11 06:09:29;;;;;;;6.63;4.78;;;;;;;;;;5036778;28;20080;-58
2021/09/11 06:11:55;;;;;;;6.03;4.20;;;;;;;;;;5018835;28;20356;-59
2021/09/11 06:14:21;;;;;;;5.13;4.47;;;;;;;;;;5036650;28;20026;-58
2021/09/11 06:16:47;;;;;;;6.10;4.75;;;;;;;;;;5036628;28;20030;-58
2021/09/11 06:19:13;;;;;;;4.50;3.92;;;;;;;;;;5037010;28;20032;-58
2021/09/11 06:21:39;;;;;;;5.57;4.40;;;;;;;;;;5018765;28;20025;-58
2021/09/11 06:24:05;;;;;;;6.82;4.80;;;;;;;;;;5002780;28;20030;-58
2021/09/11 06:26:31;;;;;;;4.68;4.00;;;;;;;;;;5036679;28;20360;-58
2021/09/11 06:28:57;;;;;;;7.25;5.15;;;;;;;;;;5036292;28;20025;-58
2021/09/11 06:31:23;;;;;;;5.05;4.55;;;;;;;;;;5036152;28;20029;-58
2021/09/11 06:33:49;;;;;;;5.63;4.68;;;;;;;;;;5036697;28;20072;-58
2021/09/11 06:36:17;;;;;;;5.38;4.55;;;;;;;;;;5036178;28;20427;-58
2021/09/11 06:38:44;;;;;;;5.50;4.60;;;;;;;;;;5018544;28;20025;-58
2021/09/11 06:41:10;;;;;;;5.47;4.78;;;;;;;;;;5036050;28;20037;-58
2021/09/11 06:43:36;;;;;;;4.60;4.03;;;;;;;;;;5036428;28;20029;-58
2021/09/11 06:46:02;;;;;;;9.85;4.75;;;;;;;;;;5001625;28;20037;-58
2021/09/11 06:48:28;;;;;;;6.53;5.05;;;;;;;;;;5036367;28;20064;-58
2021/09/11 06:50:55;;;;;;;5.05;4.35;;;;;;;;;;5035979;28;20061;-58
2021/09/11 06:53:21;;;;;;;8.45;4.47;;;;;;;;;;5002764;28;20388;-58
2021/09/11 06:55:47;;;;;;;4.75;3.53;;;;;;;;;;5036583;28;20428;-58
2021/09/11 06:58:13;;;;;;;5.70;4.30;;;;;;;;;;5035759;28;20116;-58
2021/09/11 07:00:39;;;;;;;4.38;3.92;;;;;;;;;;5002585;28;20145;-58
2021/09/11 07:03:05;;;;;;;5.90;4.80;;;;;;;;;;5035744;28;20108;-58
2021/09/11 07:05:31;;;;;;;8.70;4.40;;;;;;;;;;5035358;28;20028;-58
2021/09/11 07:07:57;;;;;;;5.18;3.88;;;;;;;;;;5034266;28;20034;-58
2021/09/11 07:10:23;;;;;;;5.65;4.15;;;;;;;;;;5035690;28;20360;-58
2021/09/11 07:12:49;;;;;;;5.25;3.78;;;;;;;;;;5035991;28;20049;-58
2021/09/11 07:15:15;;;;;;;9.07;4.57;;;;;;;;;;5035501;28;20384;-58
2021/09/11 07:17:44;;;;;;;5.85;4.35;;;;;;;;;;5017728;28;20459;-58
2021/09/11 07:20:10;;;;;;;4.15;3.45;;;;;;;;;;5035388;28;20371;-58
2021/09/11 07:22:39;;;;;;;3.22;2.92;;;;;;;;;;5035938;28;20014;-58
2021/09/11 07:25:05;;;;;;;4.85;3.10;;;;;;;;;;5035292;28;20021;-58
2021/09/11 07:27:31;;;;;;;3.83;3.00;;;;;;;;;;5034928;28;20021;-58
2021/09/11 07:29:58;;;;;;;3.90;2.47;;;;;;;;;;5035864;28;20036;-58
2021/09/11 07:32:26;;;;;;;3.70;2.35;;;;;;;;;;5035011;28;20025;-58
2021/09/11 07:34:52;;;;;;;3.75;2.78;;;;;;;;;;5017365;28;20018;-58
2021/09/11 07:37:18;;;;;;;3.75;2.53;;;;;;;;;;5017400;28;20026;-58
2021/09/11 07:39:44;;;;;;;4.05;3.13;;;;;;;;;;5034923;28;20408;-58
2021/09/11 07:42:10;;;;;;;5.97;2.92;;;;;;;;;;5035568;28;20022;-58
2021/09/11 07:44:36;;;;;;;4.13;2.97;;;;;;;;;;5034862;28;20443;-58
2021/09/11 07:47:02;;;;;;;3.83;3.13;;;;;;;;;;5035162;28;20025;-58
2021/09/11 07:49:35;;;;;;;3.67;2.70;;;;;;;;;;5017155;28;20037;-59
2021/09/11 07:52:01;;;;;;;5.40;3.17;;;;;;;;;;5035138;28;20030;-58
2021/09/11 07:54:27;;;;;;;3.92;2.97;;;;;;;;;;5017020;28;20032;-58
2021/09/11 07:56:53;;;;;;;4.10;3.03;;;;;;;;;;5034746;28;20059;-59
2021/09/11 07:59:19;;;;;;;3.40;2.90;;;;;;;;;;5034559;28;20061;-58
2021/09/11 08:01:45;;;;;;;3.80;2.75;;;;;;;;;;5016580;28;20364;-59
2021/09/11 08:04:11;;;;;;;4.20;3.17;;;;;;;;;;5000843;28;20458;-58
2021/09/11 08:06:37;;;;;;;4.47;3.00;;;;;;;;;;5035285;28;20022;-59
2021/09/11 08:09:03;;;;;;;3.63;3.15;;;;;;;;;;5034460;28;20025;-59
2021/09/11 08:11:29;;;;;;;3.45;2.65;;;;;;;;;;5034972;28;20027;-59
2021/09/11 08:13:55;;;;;;;3.70;2.85;;;;;;;;;;5034749;28;20420;-59
2021/09/11 08:16:21;;;;;;;3.40;2.88;;;;;;;;;;5033934;28;20062;-58
2021/09/11 08:18:47;;;;;;;4.38;3.53;;;;;;;;;;5034308;28;20368;-59
2021/09/11 08:21:13;;;;;;;3.28;2.65;;;;;;;;;;5034488;28;20080;-59
2021/09/11 08:23:41;;;;;;;5.75;3.60;;;;;;;;;;5034516;28;20353;-58
2021/09/11 08:26:07;;;;;;;3.63;3.05;;;;;;;;;;5034284;28;20021;-58
2021/09/11 08:28:33;;;;;;;3.33;2.60;;;;;;;;;;5016503;28;20021;-58
2021/09/11 08:30:59;;;;;;;4.43;3.25;;;;;;;;;;5034141;28;20029;-58
2021/09/11 08:33:26;;;;;;;4.20;3.50;;;;;;;;;;5034644;28;20407;-58
2021/09/11 08:35:52;;;;;;;3.70;3.00;;;;;;;;;;5017151;28;20463;-59
2021/09/11 08:38:18;;;;;;;3.80;2.67;;;;;;;;;;5034769;28;20024;-59
2021/09/11 08:40:44;;;;;;;5.13;3.08;;;;;;;;;;5033519;28;20092;-59
2021/09/11 08:43:10;;;;;;;3.28;2.75;;;;;;;;;;5016262;28;20022;-59
2021/09/11 08:45:36;;;;;;;4.15;3.15;;;;;;;;;;5033470;28;20033;-59
2021/09/11 08:48:03;;;;;;;5.00;3.03;;;;;;;;;;5033824;28;20026;-59
2021/09/11 08:50:30;;;;;;;6.15;3.05;;;;;;;;;;5033805;28;20387;-58
2021/09/11 08:52:56;;;;;;;4.65;3.38;;;;;;;;;;5034237;28;20088;-59
2021/09/11 08:55:22;;;;;;;4.22;3.58;;;;;;;;;;5033782;28;20025;-59
2021/09/11 08:57:58;;;;;;;5.93;2.80;;;;;;;;;;5033683;28;20022;-59
2021/09/11 09:00:36;;;;;;;4.00;2.92;;;;;;;;;;5033630;28;20033;-59
2021/09/11 09:03:22;;;;;;;4.20;3.28;;;;;;;;;;5033429;28;20455;-59
2021/09/11 09:05:48;;;;;;;4.78;3.33;;;;;;;;;;5033959;28;20113;-58
2021/09/11 09:08:14;;;;;;;4.43;2.92;;;;;;;;;;5033628;28;20045;-58
2021/09/11 09:10:40;;;;;;;5.00;3.10;;;;;;;;;;5015954;28;20025;-58
2021/09/11 09:13:06;;;;;;;4.60;2.88;;;;;;;;;;5036105;28;20053;-58
2021/09/11 09:15:32;;;;;;;3.35;2.70;;;;;;;;;;5037705;28;20021;-58
2021/09/11 09:17:59;;;;;;;4.70;2.65;;;;;;;;;;5037737;28;20348;-58
2021/09/11 09:20:27;;;;;;;4.93;3.13;;;;;;;;;;5037437;28;20037;-58
2021/09/11 09:22:59;;;;;;;3.63;2.72;;;;;;;;;;5037612;28;20033;-58
2021/09/11 09:25:28;;;;;;;3.38;2.70;;;;;;;;;;5037502;28;20034;-58
2021/09/11 09:28:01;;;;;;;3.50;2.67;;;;;;;;;;5019777;28;20112;-58
2021/09/11 09:30:39;;;;;;;3.40;2.65;;;;;;;;;;5037413;28;20021;-58
2021/09/11 09:33:07;;;;;;;4.68;3.17;;;;;;;;;;5037958;28;20068;-58
2021/09/11 09:35:33;;;;;;;5.55;2.78;;;;;;;;;;5037306;28;20026;-58
2021/09/11 09:38:00;;;;;;;3.72;2.70;;;;;;;;;;5037656;28;20143;-58
2021/09/11 09:40:38;;;;;;;4.03;2.70;;;;;;;;;;5037109;28;20040;-58
2021/09/11 09:43:04;;;;;;;3.50;2.85;;;;;;;;;;5037513;28;20349;-58
2021/09/11 09:45:31;;;;;;;3.10;2.30;;;;;;;;;;5037654;28;20025;-58
2021/09/11 09:48:04;;;;;;;3.67;2.97;;;;;;;;;;5037186;28;20026;-58
2021/09/11 09:50:40;;;;;;;3.15;2.45;;;;;;;;;;5037672;28;20033;-58
2021/09/11 09:53:07;;;;;;;3.20;2.42;;;;;;;;;;5019282;28;20032;-58
2021/09/11 09:55:33;;;;;;;2.70;2.17;;;;;;;;;;5037071;28;20027;-58
2021/09/11 09:57:59;;;;;;;3.00;2.70;;;;;;;;;;5036955;28;20064;-58
2021/09/11 10:00:26;;;;;;;4.63;2.03;;;;;;;;;;5037053;28;20080;-58
2021/09/11 10:02:52;;;;;;;4.35;3.15;;;;;;;;;;5037473;28;20029;-58
2021/09/11 10:05:22;;;;;;;4.35;3.08;;;;;;;;;;5036757;28;20165;-59
2021/09/11 10:08:00;;;;;;;3.95;2.40;;;;;;;;;;5036614;28;20026;-58
2021/09/11 10:10:27;;;;;;;2.95;2.25;;;;;;;;;;5019347;28;20025;-58
2021/09/11 10:13:03;;;;;;;3.00;2.45;;;;;;;;;;5036670;28;20057;-59
2021/09/11 10:15:35;;;;;;;3.22;2.65;;;;;;;;;;5037272;28;20017;-58
2021/09/11 10:18:01;;;;;;;3.33;3.03;;;;;;;;;;5019419;28;20017;-58
2021/09/11 10:20:27;;;;;;;4.88;3.50;;;;;;;;;;5018913;28;20030;-58
2021/09/11 10:23:16;;;;;;;4.78;4.13;;;;;;;;;;5037102;28;20436;-59
2021/09/11 10:25:43;;;;;;;3.42;2.50;;;;;;;;;;5025891;28;20057;-58
2021/09/11 10:28:17;;;;;;;3.65;2.90;;;;;;;;;;5036436;28;20021;-58
2021/09/11 10:30:58;;;;;;;2.92;2.25;;;;;;;;;;5019747;28;20407;-58
2021/09/11 10:33:40;;;;;;;3.75;2.80;;;;;;;;;;5036356;28;20073;-58
2021/09/11 10:36:10;;;;;;;3.70;2.75;;;;;;;;;;5036434;28;20022;-58
2021/09/11 10:38:43;;;;;;;4.68;3.00;;;;;;;;;;5036412;28;20021;-59
2021/09/11 10:41:11;;;;;;;3.75;2.92;;;;;;;;;;5036401;28;20032;-58
2021/09/11 10:43:37;;;;;;;4.03;3.13;;;;;;;;;;5036641;28;20045;-59
2021/09/11 10:46:08;;;;;;;4.88;3.28;;;;;;;;;;5035998;28;20022;-58
2021/09/11 10:48:41;;;;;;;4.30;3.03;;;;;;;;;;5019335;28;20018;-59
2021/09/11 10:51:28;;;;;;;4.68;3.78;;;;;;;;;;5035896;28;20054;-59
2021/09/11 10:53:57;;;;;;;3.72;3.13;;;;;;;;;;5036089;28;20053;-58
2021/09/11 10:56:27;;;;;;;4.15;2.90;;;;;;;;;;5036408;28;20352;-58
2021/09/11 10:59:12;;;;;;;4.38;3.13;;;;;;;;;;5018455;28;20024;-58
2021/09/11 11:01:56;;;;;;;5.28;2.95;;;;;;;;;;5035791;28;20068;-58
2021/09/11 11:04:26;;;;;;;7.20;3.17;;;;;;;;;;5036122;28;20026;-59
2021/09/11 11:06:53;;;;;;;6.38;2.72;;;;;;;;;;5036550;28;20112;-58
2021/09/11 11:09:22;;;;;;;3.88;3.28;;;;;;;;;;5018123;28;20379;-59
2021/09/11 11:11:48;;;;;;;4.72;2.95;;;;;;;;;;5035659;28;20068;-59
2021/09/11 11:14:15;;;;;;;3.30;2.60;;;;;;;;;;5035927;28;20049;-59
2021/09/11 11:16:50;;;;;;;4.18;3.00;;;;;;;;;;5035569;28;20026;-59
2021/09/11 11:19:23;;;;;;;4.45;3.00;;;;;;;;;;5034392;28;20038;-58
2021/09/11 11:22:00;;;;;;;4.40;2.50;;;;;;;;;;5035739;28;20068;-59
2021/09/11 11:24:28;;;;;;;3.70;3.15;;;;;;;;;;5035633;28;20026;-59
2021/09/11 11:26:54;;;;;;;6.60;3.38;;;;;;;;;;5035526;28;20025;-59
2021/09/11 11:29:20;;;;;;;5.40;2.70;;;;;;;;;;5035565;28;20021;-58
2021/09/11 11:31:48;;;;;;;4.65;2.97;;;;;;;;;;5034838;28;20413;-58
2021/09/11 11:34:14;;;;;;;8.40;3.92;;;;;;;;;;5035274;28;20072;-59
2021/09/11 11:37:07;;;;;;;8.07;4.43;;;;;;;;;;5016688;28;20363;-58
2021/09/11 11:39:37;;;;;;;3.30;2.40;;;;;;;;;;5031399;28;20045;-58
2021/09/11 11:42:08;;;;;;;7.75;2.05;;;;;;;;;;5035442;28;20026;-58
2021/09/11 11:44:37;;;;;;;4.10;2.65;;;;;;;;;;5034896;28;20030;-58
2021/09/11 11:47:09;;;;;;;2.95;2.05;;;;;;;;;;5017210;28;20022;-58
2021/09/11 11:49:36;;;;;;;3.92;2.30;;;;;;;;;;5016980;28;20540;-58
2021/09/11 11:52:05;;;;;;;3.63;2.67;;;;;;;;;;5035607;28;20017;-58
2021/09/11 11:54:33;;;;;;;3.53;2.08;;;;;;;;;;5035292;28;20407;-59
2021/09/11 11:57:07;;;;;;;3.17;2.33;;;;;;;;;;5033507;28;20036;-58
2021/09/11 11:59:33;;;;;;;3.08;2.00;;;;;;;;;;5017247;28;20042;-60
2021/09/11 12:01:59;;;;;;;3.30;2.35;;;;;;;;;;5017162;28;20022;-58
2021/09/11 12:04:28;;;;;;;4.35;2.58;;;;;;;;;;5034285;28;20066;-58
2021/09/11 12:06:54;;;;;;;4.07;2.13;;;;;;;;;;5017356;28;20032;-58
2021/09/11 12:09:20;;;;;;;3.03;2.15;;;;;;;;;;5017118;28;20018;-58
2021/09/11 12:11:46;;;;;;;4.03;2.72;;;;;;;;;;5034431;28;20014;-58
2021/09/11 12:14:13;;;;;;;2.63;1.90;;;;;;;;;;5034927;28;20045;-58
2021/09/11 12:16:39;;;;;;;2.50;1.95;;;;;;;;;;5034566;28;20033;-58
2021/09/11 12:19:09;;;;;;;2.60;1.80;;;;;;;;;;5034696;28;20022;-58
2021/09/11 12:21:35;;;;;;;2.88;2.33;;;;;;;;;;5034975;28;20031;-58
2021/09/11 12:24:01;;;;;;;4.53;2.45;;;;;;;;;;5033943;28;20021;-58
2021/09/11 12:26:31;;;;;;;3.00;1.95;;;;;;;;;;5016382;28;20037;-59
2021/09/11 12:29:16;;;;;;;3.90;2.25;;;;;;;;;;5034394;28;20026;-58
2021/09/11 12:32:00;;;;;;;4.15;1.90;;;;;;;;;;5034798;28;20026;-58
2021/09/11 12:34:26;;;;;;;2.22;1.42;;;;;;;;;;5033954;28;20040;-58
2021/09/11 12:36:56;;;;;;;2.20;1.40;;;;;;;;;;5034271;28;20022;-59
2021/09/11 12:39:27;;;;;;;2.00;1.25;;;;;;;;;;5033983;28;20467;-58
2021/09/11 12:41:54;;;;;;;3.05;1.92;;;;;;;;;;5016244;28;20053;-59
2021/09/11 12:44:30;;;;;;;2.28;1.35;;;;;;;;;;5016142;28;20033;-58
2021/09/11 12:46:57;;;;;;;2.53;1.70;;;;;;;;;;5033715;28;20060;-59
2021/09/11 12:49:24;;;;;;;2.78;1.40;;;;;;;;;;5016099;28;20025;-58
2021/09/11 12:51:51;;;;;;;2.03;1.20;;;;;;;;;;5033702;28;20029;-59
2021/09/11 12:54:18;;;;;;;2.15;1.50;;;;;;;;;;5033785;28;20482;-59
2021/09/11 12:56:44;;;;;;;2.65;1.90;;;;;;;;;;5034259;28;20033;-59
2021/09/11 12:59:12;;;;;;;2.70;1.70;;;;;;;;;;5033887;28;20022;-58
2021/09/11 13:01:39;;;;;;;2.63;1.67;;;;;;;;;;5015889;28;20072;-59
2021/09/11 13:04:06;;;;;;;1.80;1.20;;;;;;;;;;5033633;28;20569;-59
2021/09/11 13:06:33;;;;;;;3.35;1.65;;;;;;;;;;5033891;28;20100;-59
2021/09/11 13:09:00;;;;;;;3.22;1.60;;;;;;;;;;5033672;28;20022;-59
2021/09/11 13:11:26;;;;;;;3.25;1.85;;;;;;;;;;5033534;28;20037;-59
2021/09/11 13:13:52;;;;;;;5.50;1.67;;;;;;;;;;5033997;28;20061;-59
2021/09/11 13:16:27;;;;;;;2.95;1.40;;;;;;;;;;5033485;28;20018;-59
2021/09/11 13:18:53;;;;;;;2.58;1.70;;;;;;;;;;5016584;28;20024;-59
2021/09/11 13:21:19;;;;;;;2.25;1.60;;;;;;;;;;5015537;28;20084;-59
2021/09/11 13:23:46;;;;;;;2.85;1.75;;;;;;;;;;5034264;28;20029;-59
2021/09/11 13:26:14;;;;;;;2.22;1.70;;;;;;;;;;5033795;28;20025;-60
2021/09/11 13:28:41;;;;;;;5.20;1.70;;;;;;;;;;5033355;28;20112;-60
2021/09/11 13:31:07;;;;;;;2.58;1.65;;;;;;;;;;5033389;28;20077;-60
2021/09/11 13:33:34;;;;;;;3.65;2.08;;;;;;;;;;5033258;28;20117;-60
2021/09/11 13:36:00;;;;;;;3.65;2.00;;;;;;;;;;5033455;28;20029;-59
2021/09/11 13:38:26;;;;;;;1.90;1.20;;;;;;;;;;5015716;28;20084;-59
2021/09/11 13:40:55;;;;;;;2.80;1.70;;;;;;;;;;5033619;28;20123;-60
2021/09/11 13:43:22;;;;;;;6.95;2.20;;;;;;;;;;5033830;28;20018;-60
2021/09/11 13:45:49;;;;;;;2.88;1.80;;;;;;;;;;5034028;28;20105;-59
2021/09/11 13:48:18;;;;;;;3.80;2.30;;;;;;;;;;5032908;28;20031;-60
2021/09/11 13:50:45;;;;;;;3.35;2.05;;;;;;;;;;5033181;28;20036;-60
2021/09/11 13:53:11;;;;;;;3.47;1.63;;;;;;;;;;5033024;28;20026;-60
2021/09/11 13:55:37;;;;;;;2.63;1.40;;;;;;;;;;5033197;28;20029;-60
2021/09/11 13:58:03;;;;;;;3.28;1.73;;;;;;;;;;5033202;28;20478;-60
2021/09/11 14:00:29;;;;;;;2.42;1.48;;;;;;;;;;5035557;28;20181;-60
2021/09/11 14:02:57;;;;;;;3.25;1.85;;;;;;;;;;5036975;28;20025;-60
2021/09/11 14:05:23;;;;;;;2.35;1.60;;;;;;;;;;5019829;28;20044;-59
2021/09/11 14:07:49;;;;;;;3.17;1.80;;;;;;;;;;5037042;28;20360;-59
2021/09/11 14:10:17;;;;;;;2.08;1.35;;;;;;;;;;5036439;28;20029;-59
2021/09/11 14:12:43;;;;;;;2.13;1.23;;;;;;;;;;5036828;28;20049;-59
2021/09/11 14:15:10;;;;;;;3.78;1.65;;;;;;;;;;5036933;28;20021;-59
2021/09/11 14:17:38;;;;;;;2.50;1.65;;;;;;;;;;5036604;28;20017;-58
2021/09/11 14:20:05;;;;;;;1.75;1.00;;;;;;;;;;5036702;28;20033;-59
2021/09/11 14:22:31;;;;;;;2.20;1.35;;;;;;;;;;5036654;28;20409;-59
2021/09/11 14:24:57;;;;;;;2.08;1.50;;;;;;;;;;5036474;28;20026;-59
2021/09/11 14:27:23;;;;;;;2.03;1.30;;;;;;;;;;5037211;28;20044;-59
2021/09/11 14:29:49;;;;;;;3.67;1.30;;;;;;;;;;5036332;28;20035;-58
2021/09/11 14:32:17;;;;;;;2.08;1.30;;;;;;;;;;5037123;28;20030;-58
2021/09/11 14:34:43;;;;;;;4.47;1.42;;;;;;;;;;5018666;28;20026;-58
2021/09/11 14:37:09;;;;;;;2.38;1.17;;;;;;;;;;5036276;28;20029;-58
2021/09/11 14:39:35;;;;;;;2.40;1.60;;;;;;;;;;5036422;28;20344;-58
2021/09/11 14:42:02;;;;;;;2.72;1.40;;;;;;;;;;5036520;28;20108;-59
2021/09/11 14:44:28;;;;;;;1.85;1.25;;;;;;;;;;5036034;28;20021;-58